Time;durP1;ratioP1;P1;durP2;ratioP2;P2;SDS_P1;SDS_P2;PMS_P1;PMS_P2;Temp;Humidity;BMP_temperature;BMP_pressure;BME280_temperature;BME280_humidity;BME280_pressure;Samples;Min_cycle;Max_cycle;Signal;HPM_P1;HPM_P2
2021/05/18 00:00:58;;;;;;;11.00;6.40;;;10.30;99.90;;;;;;5095425;28;20170;-71
2021/05/18 00:03:24;;;;;;;13.90;6.73;;;10.30;99.90;;;;;;5095303;28;20171;-70
2021/05/18 00:05:54;;;;;;;11.97;5.57;;;10.30;99.90;;;;;;5095234;28;20206;-70
2021/05/18 00:08:22;;;;;;;14.63;5.77;;;10.20;99.90;;;;;;5095343;28;20406;-71
2021/05/18 00:13:38;;;;;;;13.00;6.67;;;10.40;99.90;;;;;;5095485;28;20877;-71
2021/05/18 00:16:05;;;;;;;15.43;6.57;;;10.40;1.00;;;;;;5095253;28;20447;-71
2021/05/18 00:18:32;;;;;;;11.33;5.90;;;10.40;1.00;;;;;;5095594;28;20409;-71
2021/05/18 00:20:57;;;;;;;8.93;5.73;;;10.40;1.00;;;;;;5094955;28;20406;-71
2021/05/18 00:23:23;;;;;;;11.80;6.73;;;10.50;1.00;;;;;;5094891;28;20401;-71
2021/05/18 00:25:49;;;;;;;12.53;5.93;;;10.50;99.90;;;;;;5094718;28;20187;-71
2021/05/18 00:28:15;;;;;;;13.63;6.50;;;10.30;99.90;;;;;;5094887;28;20397;-70
2021/05/18 00:30:41;;;;;;;14.90;6.70;;;10.20;99.90;;;;;;5094702;28;20206;-70
2021/05/18 00:33:14;;;;;;;10.40;6.23;;;10.30;99.90;;;;;;5094717;28;20410;-71
2021/05/18 00:35:40;;;;;;;15.23;7.10;;;10.40;1.00;;;;;;5094722;28;20257;-71
2021/05/18 00:38:06;;;;;;;12.73;6.47;;;10.50;99.90;;;;;;5094766;28;20401;-70
2021/05/18 00:40:31;;;;;;;12.63;6.87;;;10.40;99.90;;;;;;5094654;28;20410;-71
2021/05/18 00:42:57;;;;;;;10.90;6.97;;;10.40;99.90;;;;;;5094592;28;20164;-71
2021/05/18 00:45:37;;;;;;;9.33;5.67;;;10.40;1.00;;;;;;5094502;28;20191;-71
2021/05/18 00:48:04;;;;;;;11.80;7.17;;;10.40;1.00;;;;;;5094782;28;20163;-69
2021/05/18 00:50:31;;;;;;;10.73;6.33;;;10.40;99.90;;;;;;5094327;28;20813;-70
2021/05/18 00:52:56;;;;;;;15.77;6.53;;;10.50;1.00;;;;;;5094469;28;20408;-70
2021/05/18 01:00:38;;;;;;;10.60;6.23;;;10.60;99.90;;;;;;5094613;28;20377;-71
2021/05/18 01:03:04;;;;;;;17.90;6.30;;;10.60;1.00;;;;;;5094359;28;20410;-69
2021/05/18 01:08:14;;;;;;;11.53;6.90;;;10.60;1.00;;;;;;5094671;28;20377;-70
2021/05/18 01:10:40;;;;;;;13.20;6.60;;;10.60;1.00;;;;;;5093847;28;20461;-71
2021/05/18 01:13:06;;;;;;;10.43;6.93;;;10.60;1.00;;;;;;5094006;28;20175;-70
2021/05/18 01:15:32;;;;;;;8.83;7.60;;;10.70;1.00;;;;;;5093926;28;20938;-71
2021/05/18 01:17:58;;;;;;;11.07;7.43;;;10.70;99.90;;;;;;5093935;28;20168;-71
2021/05/18 01:20:23;;;;;;;15.27;7.83;;;10.70;1.00;;;;;;5092582;28;20179;-71
2021/05/18 01:22:50;;;;;;;14.20;7.60;;;10.60;99.90;;;;;;5093837;28;20636;-70
2021/05/18 01:25:17;;;;;;;10.77;7.07;;;10.60;11.00;;;;;;5093853;28;20568;-71
2021/05/18 01:27:43;;;;;;;9.87;7.70;;;10.70;99.90;;;;;;5093692;28;20412;-71
2021/05/18 01:30:10;;;;;;;12.17;6.90;;;10.60;99.90;;;;;;5093647;28;20402;-70
2021/05/18 01:32:39;;;;;;;13.80;8.17;;;10.70;99.90;;;;;;5093593;28;20558;-69
2021/05/18 01:35:05;;;;;;;13.03;8.03;;;10.80;1.00;;;;;;5093511;28;20417;-71
2021/05/18 01:37:31;;;;;;;19.97;8.33;;;10.80;99.90;;;;;;5093238;28;20413;-71
2021/05/18 01:40:16;;;;;;;10.90;7.77;;;10.90;27.40;;;;;;5094036;28;20406;-70
2021/05/18 01:42:46;;;;;;;13.60;7.37;;;10.80;99.90;;;;;;5093795;28;20144;-71
2021/05/18 01:45:16;;;;;;;11.63;8.77;;;10.90;6.20;;;;;;5093358;28;20500;-70
2021/05/18 01:47:47;;;;;;;13.20;7.60;;;10.90;15.20;;;;;;5093396;28;20404;-71
2021/05/18 01:50:13;;;;;;;15.50;8.73;;;10.90;51.00;;;;;;5093566;28;20445;-70
2021/05/18 01:52:39;;;;;;;11.17;7.00;;;10.90;1.00;;;;;;5091992;28;20929;-71
2021/05/18 01:55:05;;;;;;;14.67;9.80;;;10.80;1.00;;;;;;5093238;28;20421;-71
2021/05/18 01:57:30;;;;;;;12.60;8.50;;;10.90;50.70;;;;;;5093477;28;20632;-70
2021/05/18 01:59:56;;;;;;;11.60;8.47;;;11.00;1.00;;;;;;5093237;28;20951;-70
2021/05/18 02:02:22;;;;;;;13.70;8.50;;;11.10;99.90;;;;;;5093441;28;20171;-71
2021/05/18 02:04:57;;;;;;;11.83;7.83;;;11.10;99.90;;;;;;5093076;28;20183;-70
2021/05/18 02:07:26;;;;;;;14.87;8.47;;;11.10;49.40;;;;;;5093121;28;20746;-71
2021/05/18 02:09:52;;;;;;;10.77;8.10;;;11.10;1.00;;;;;;5092984;28;21036;-71
2021/05/18 02:12:18;;;;;;;7.90;7.10;;;11.10;1.00;;;;;;5093051;28;20441;-70
2021/05/18 02:14:47;;;;;;;9.77;7.20;;;11.10;1.00;;;;;;5092945;28;20276;-71
2021/05/18 02:25:29;;;;;;;11.97;8.67;;;11.10;99.90;;;;;;5093454;28;20492;-70
2021/05/18 02:27:56;;;;;;;12.10;7.93;;;11.10;99.90;;;;;;5092941;28;20888;-70
2021/05/18 02:30:22;;;;;;;11.00;7.77;;;11.00;99.90;;;;;;5092818;28;20198;-70
2021/05/18 02:32:49;;;;;;;11.80;7.50;;;11.00;1.00;;;;;;5092848;28;21000;-69
2021/05/18 02:35:15;;;;;;;9.27;7.83;;;11.00;99.90;;;;;;5093083;28;20778;-71
2021/05/18 02:37:42;;;;;;;14.83;8.40;;;11.00;99.90;;;;;;5093098;28;20740;-71
2021/05/18 02:40:15;;;;;;;12.23;7.90;;;11.10;99.90;;;;;;5091501;28;20401;-70
2021/05/18 02:42:41;;;;;;;11.10;7.30;;;11.00;1.00;;;;;;5093101;28;20469;-69
2021/05/18 02:45:13;;;;;;;16.70;11.03;;;11.00;99.90;;;;;;5092785;28;20441;-70
2021/05/18 02:50:23;;;;;;;13.90;8.30;;;11.20;99.90;;;;;;5097086;28;20911;-71
2021/05/18 02:52:48;;;;;;;12.90;7.90;;;11.20;99.90;;;;;;5096835;28;20397;-69
2021/05/18 02:55:26;;;;;;;15.97;8.00;;;11.00;99.90;;;;;;5096602;28;20226;-71
2021/05/18 02:57:53;;;;;;;9.33;6.83;;;11.10;99.90;;;;;;5096644;28;20175;-70
2021/05/18 03:00:21;;;;;;;12.50;6.77;;;11.10;99.90;;;;;;5096521;28;20450;-71
2021/05/18 03:02:48;;;;;;;13.93;7.30;;;11.10;93.80;;;;;;5096542;28;20402;-71
2021/05/18 03:05:14;;;;;;;9.17;6.90;;;11.10;99.90;;;;;;5096430;28;20421;-70
2021/05/18 03:07:39;;;;;;;7.70;5.83;;;11.10;99.90;;;;;;5096983;28;20409;-69
2021/05/18 03:10:06;;;;;;;13.10;6.80;;;11.10;99.90;;;;;;5096385;28;20187;-71
2021/05/18 03:12:32;;;;;;;11.43;6.20;;;11.00;24.60;;;;;;5097566;28;20176;-71
2021/05/18 03:14:58;;;;;;;8.60;5.47;;;11.00;99.90;;;;;;5097558;28;20425;-71
2021/05/18 03:17:24;;;;;;;8.83;5.30;;;11.00;1.00;;;;;;5097301;28;20393;-70
2021/05/18 03:19:49;;;;;;;8.80;5.47;;;11.00;1.00;;;;;;5097086;28;20174;-71
2021/05/18 03:22:15;;;;;;;12.23;6.10;;;11.00;1.00;;;;;;5096087;28;20258;-71
2021/05/18 03:24:41;;;;;;;12.20;5.37;;;11.00;1.00;;;;;;5095066;28;20199;-70
2021/05/18 03:27:08;;;;;;;9.30;5.60;;;11.10;1.00;;;;;;5096626;28;20666;-71
2021/05/18 03:29:34;;;;;;;9.50;5.27;;;11.00;1.00;;;;;;5096860;28;20503;-71
2021/05/18 03:34:45;;;;;;;10.73;4.80;;;11.10;1.00;;;;;;5096724;28;20894;-71
2021/05/18 03:37:20;;;;;;;11.30;5.00;;;11.10;1.00;;;;;;5095931;28;20619;-70
2021/05/18 03:39:49;;;;;;;9.07;4.23;;;11.20;99.90;;;;;;5095871;28;20146;-70
2021/05/18 03:42:22;;;;;;;5.60;3.80;;;11.00;99.90;;;;;;5095825;28;20898;-71
2021/05/18 03:53:03;;;;;;;10.00;3.90;;;11.00;99.90;;;;;;5095579;28;20380;-70
2021/05/18 04:12:08;;;;;;;8.30;5.00;;;11.10;99.90;;;;;;5095363;28;20495;-70
2021/05/18 04:17:24;;;;;;;8.03;3.80;;;11.00;99.90;;;;;;5095629;28;20427;-70
2021/05/18 04:22:33;;;;;;;8.90;3.70;;;11.00;99.90;;;;;;5095038;28;20377;-71
2021/05/18 04:25:31;;;;;;;8.43;4.03;;;11.00;99.90;;;;;;5094961;28;20773;-71
2021/05/18 04:39:01;;;;;;;9.27;3.47;;;11.20;99.90;;;;;;5094903;28;20427;-71
2021/05/18 04:52:12;;;;;;;8.60;4.00;;;11.30;99.90;;;;;;5094592;28;20449;-70
2021/05/18 04:55:14;;;;;;;16.13;5.10;;;11.30;99.90;;;;;;5094786;28;20426;-71
2021/05/18 05:00:11;;;;;;;15.90;4.93;;;11.40;99.90;;;;;;5094860;28;20381;-71
2021/05/18 05:15:41;;;;;;;10.23;4.53;;;11.30;99.90;;;;;;5094283;28;20421;-70
2021/05/18 05:18:07;;;;;;;9.17;4.30;;;11.20;99.90;;;;;;5094016;28;20476;-71
2021/05/18 05:20:32;;;;;;;11.17;3.83;;;11.20;99.90;;;;;;5093680;28;20462;-72
2021/05/18 05:22:58;;;;;;;13.03;3.80;;;11.20;99.90;;;;;;5093667;28;20397;-70
2021/05/18 05:25:24;;;;;;;21.10;4.57;;;11.30;99.90;;;;;;5093664;28;20188;-70
2021/05/18 05:27:51;;;;;;;12.57;3.80;;;11.40;99.90;;;;;;5094179;28;20491;-70
2021/05/18 05:30:17;;;;;;;13.90;4.47;;;11.40;99.90;;;;;;5093502;28;20168;-70
2021/05/18 05:32:43;;;;;;;9.53;3.80;;;11.50;99.90;;;;;;5093434;28;20836;-69
2021/05/18 05:35:09;;;;;;;15.83;4.20;;;11.40;99.90;;;;;;5093739;28;20187;-69
2021/05/18 05:37:35;;;;;;;12.87;5.17;;;11.50;99.90;;;;;;5093438;28;20496;-71
2021/05/18 05:40:00;;;;;;;16.10;4.37;;;11.50;99.90;;;;;;5093582;28;20440;-71
2021/05/18 05:42:26;;;;;;;13.93;4.60;;;11.60;97.90;;;;;;5093465;28;20164;-70
2021/05/18 05:44:51;;;;;;;19.20;4.93;;;11.50;99.90;;;;;;5093323;28;20190;-70
2021/05/18 05:47:18;;;;;;;29.50;6.13;;;11.50;99.90;;;;;;5092481;28;20167;-70
2021/05/18 05:49:43;;;;;;;17.17;4.40;;;11.40;99.90;;;;;;5093055;28;20172;-70
2021/05/18 05:52:18;;;;;;;23.87;6.33;;;11.50;99.90;;;;;;5092714;28;20452;-70
2021/05/18 05:54:43;;;;;;;12.30;4.13;;;11.50;99.90;;;;;;5093138;28;20447;-71
2021/05/18 05:57:09;;;;;;;10.00;3.10;;;11.60;99.90;;;;;;5092919;28;20469;-71
2021/05/18 05:59:34;;;;;;;10.10;4.27;;;11.50;99.90;;;;;;5093157;28;20629;-71
2021/05/18 06:02:03;;;;;;;10.53;3.80;;;11.40;99.90;;;;;;5093212;28;20167;-70
2021/05/18 06:04:28;;;;;;;9.73;3.87;;;11.40;99.90;;;;;;5091639;28;20214;-71
2021/05/18 06:06:54;;;;;;;11.07;4.40;;;11.50;99.90;;;;;;5092867;28;20739;-71
2021/05/18 06:09:20;;;;;;;16.87;4.90;;;11.30;99.90;;;;;;5092760;28;20275;-70
2021/05/18 06:17:13;;;;;;;13.97;5.13;;;11.20;99.90;;;;;;5093044;28;20147;-70
2021/05/18 06:41:58;;;;;;;10.07;3.50;;;11.10;99.90;;;;;;5093100;28;20360;-72
2021/05/18 06:49:58;;;;;;;12.80;4.50;;;10.90;99.90;;;;;;5093104;28;20954;-71
2021/05/18 06:52:23;;;;;;;6.67;3.53;;;11.00;99.90;;;;;;5092418;28;20445;-71
2021/05/18 06:54:49;;;;;;;5.53;3.50;;;11.00;99.90;;;;;;5092221;28;20425;-71
2021/05/18 06:57:14;;;;;;;8.37;4.00;;;10.90;1.00;;;;;;5092324;28;20176;-71
2021/05/18 07:02:24;;;;;;;6.50;2.93;;;10.80;99.90;;;;;;5092063;28;20518;-72
2021/05/18 07:04:53;;;;;;;6.47;2.90;;;10.70;1.00;;;;;;5092491;28;20493;-71
2021/05/18 07:07:21;;;;;;;6.67;3.10;;;10.80;29.30;;;;;;5092161;28;20481;-71
2021/05/18 07:09:47;;;;;;;4.90;2.90;;;10.90;99.90;;;;;;5092339;28;20433;-70
2021/05/18 07:12:12;;;;;;;7.73;4.20;;;10.80;1.00;;;;;;5090538;28;20461;-70
2021/05/18 07:14:38;;;;;;;8.27;3.17;;;10.90;99.90;;;;;;5090232;28;20278;-71
2021/05/18 07:17:04;;;;;;;6.33;3.73;;;10.90;1.00;;;;;;5092000;28;20539;-70
2021/05/18 07:19:29;;;;;;;12.10;4.13;;;10.90;99.90;;;;;;5091895;28;20312;-70
2021/05/18 07:21:55;;;;;;;5.60;4.07;;;11.00;1.00;;;;;;5090726;28;20176;-70
2021/05/18 07:24:25;;;;;;;5.50;4.40;;;11.00;99.90;;;;;;5092062;28;20659;-70
2021/05/18 07:26:51;;;;;;;6.43;4.07;;;11.10;1.00;;;;;;5091648;28;20160;-69
2021/05/18 07:29:20;;;;;;;7.67;5.10;;;11.10;99.90;;;;;;5091778;28;20410;-69
2021/05/18 07:31:46;;;;;;;17.03;5.10;;;11.10;99.90;;;;;;5091751;28;20195;-69
2021/05/18 07:34:11;;;;;;;12.43;4.83;;;10.90;1.00;;;;;;5092663;28;20569;-70
2021/05/18 07:36:37;;;;;;;8.93;4.90;;;11.00;1.00;;;;;;5093956;28;20168;-70
2021/05/18 07:39:03;;;;;;;8.50;5.07;;;11.00;1.00;;;;;;5095817;28;20175;-70
2021/05/18 07:41:31;;;;;;;11.03;5.80;;;10.90;1.00;;;;;;5094235;28;20268;-71
2021/05/18 07:43:58;;;;;;;14.73;5.80;;;11.00;99.90;;;;;;5095279;28;20618;-70
2021/05/18 07:46:24;;;;;;;7.10;5.10;;;11.10;99.90;;;;;;5095388;28;20489;-70
2021/05/18 08:07:20;;;;;;;14.27;7.97;;;11.90;1.00;;;;;;5094911;28;20381;-70
2021/05/18 08:09:56;;;;;;;11.77;7.30;;;11.90;99.90;;;;;;5094603;28;20926;-68
2021/05/18 08:12:22;;;;;;;12.47;8.30;;;11.80;1.00;;;;;;5095479;28;20802;-68
2021/05/18 08:14:56;;;;;;;16.63;7.97;;;12.00;1.00;;;;;;5094962;28;20426;-70
2021/05/18 09:29:55;;;;;;;4.03;3.33;;;11.90;99.90;;;;;;5014232;28;20749;-67
